sensor_id;sensor_type;location;lat;lon;timestamp;P1;durP1;ratioP1;P2;durP2;ratioP2
11425;SDS011;5769;47.998;7.788;2023-04-04T00:01:57;24.27;;;20.73;;
11425;SDS011;5769;47.998;7.788;2023-04-04T00:04:25;20.30;;;18.08;;
11425;SDS011;5769;47.998;7.788;2023-04-04T00:06:52;16.10;;;14.20;;
11425;SDS011;5769;47.998;7.788;2023-04-04T00:09:21;13.30;;;12.35;;
11425;SDS011;5769;47.998;7.788;2023-04-04T00:11:48;15.65;;;14.10;;
11425;SDS011;5769;47.998;7.788;2023-04-04T00:14:15;15.60;;;13.57;;
11425;SDS011;5769;47.998;7.788;2023-04-04T00:16:42;11.07;;;10.55;;
11425;SDS011;5769;47.998;7.788;2023-04-04T00:19:09;10.98;;;10.48;;
11425;SDS011;5769;47.998;7.788;2023-04-04T00:21:42;14.77;;;13.35;;
11425;SDS011;5769;47.998;7.788;2023-04-04T00:24:09;13.50;;;12.45;;
11425;SDS011;5769;47.998;7.788;2023-04-04T00:26:38;11.38;;;10.85;;
11425;SDS011;5769;47.998;7.788;2023-04-04T00:29:05;15.07;;;13.57;;
11425;SDS011;5769;47.998;7.788;2023-04-04T00:31:35;12.75;;;11.73;;
11425;SDS011;5769;47.998;7.788;2023-04-04T00:34:02;9.55;;;9.15;;
11425;SDS011;5769;47.998;7.788;2023-04-04T00:36:29;9.93;;;9.52;;
11425;SDS011;5769;47.998;7.788;2023-04-04T00:38:58;11.20;;;10.68;;
11425;SDS011;5769;47.998;7.788;2023-04-04T00:41:25;11.15;;;10.63;;
11425;SDS011;5769;47.998;7.788;2023-04-04T00:43:54;11.30;;;10.73;;
11425;SDS011;5769;47.998;7.788;2023-04-04T00:46:21;12.80;;;11.90;;
11425;SDS011;5769;47.998;7.788;2023-04-04T00:48:50;12.40;;;11.55;;
11425;SDS011;5769;47.998;7.788;2023-04-04T00:51:19;14.35;;;13.00;;
11425;SDS011;5769;47.998;7.788;2023-04-04T00:53:46;13.95;;;12.75;;
11425;SDS011;5769;47.998;7.788;2023-04-04T00:56:14;14.38;;;13.07;;
11425;SDS011;5769;47.998;7.788;2023-04-04T00:58:41;13.85;;;12.77;;
11425;SDS011;5769;47.998;7.788;2023-04-04T01:01:10;14.13;;;12.90;;
11425;SDS011;5769;47.998;7.788;2023-04-04T01:03:38;14.70;;;13.30;;
11425;SDS011;5769;47.998;7.788;2023-04-04T01:06:05;12.15;;;11.40;;
11425;SDS011;5769;47.998;7.788;2023-04-04T01:08:35;13.13;;;12.18;;
11425;SDS011;5769;47.998;7.788;2023-04-04T01:11:02;15.48;;;14.05;;
11425;SDS011;5769;47.998;7.788;2023-04-04T01:13:30;16.70;;;15.07;;
11425;SDS011;5769;47.998;7.788;2023-04-04T01:15:57;17.27;;;15.27;;
11425;SDS011;5769;47.998;7.788;2023-04-04T01:18:26;18.23;;;16.33;;
11425;SDS011;5769;47.998;7.788;2023-04-04T01:20:55;18.58;;;16.50;;
11425;SDS011;5769;47.998;7.788;2023-04-04T01:23:23;21.33;;;18.20;;
11425;SDS011;5769;47.998;7.788;2023-04-04T01:25:59;20.40;;;17.77;;
11425;SDS011;5769;47.998;7.788;2023-04-04T01:28:27;18.25;;;16.08;;
11425;SDS011;5769;47.998;7.788;2023-04-04T01:30:54;24.45;;;18.27;;
11425;SDS011;5769;47.998;7.788;2023-04-04T01:33:23;19.92;;;16.10;;
11425;SDS011;5769;47.998;7.788;2023-04-04T01:35:52;21.92;;;19.15;;
11425;SDS011;5769;47.998;7.788;2023-04-04T01:38:25;24.52;;;21.33;;
11425;SDS011;5769;47.998;7.788;2023-04-04T01:40:54;24.83;;;19.92;;
11425;SDS011;5769;47.998;7.788;2023-04-04T01:43:23;23.67;;;20.52;;
11425;SDS011;5769;47.998;7.788;2023-04-04T01:45:50;25.33;;;21.58;;
11425;SDS011;5769;47.998;7.788;2023-04-04T01:48:17;27.08;;;22.42;;
11425;SDS011;5769;47.998;7.788;2023-04-04T01:50:44;25.02;;;20.60;;
11425;SDS011;5769;47.998;7.788;2023-04-04T01:53:12;23.80;;;20.10;;
11425;SDS011;5769;47.998;7.788;2023-04-04T01:55:39;24.45;;;21.08;;
11425;SDS011;5769;47.998;7.788;2023-04-04T01:58:06;24.83;;;21.33;;
11425;SDS011;5769;47.998;7.788;2023-04-04T02:00:34;22.60;;;20.20;;
11425;SDS011;5769;47.998;7.788;2023-04-04T02:03:01;23.58;;;18.75;;
11425;SDS011;5769;47.998;7.788;2023-04-04T02:05:28;21.67;;;18.33;;
11425;SDS011;5769;47.998;7.788;2023-04-04T02:07:56;20.55;;;18.25;;
11425;SDS011;5769;47.998;7.788;2023-04-04T02:10:23;22.55;;;18.75;;
11425;SDS011;5769;47.998;7.788;2023-04-04T02:12:51;22.08;;;18.90;;
11425;SDS011;5769;47.998;7.788;2023-04-04T02:15:18;20.48;;;18.13;;
11425;SDS011;5769;47.998;7.788;2023-04-04T02:17:47;21.52;;;17.70;;
11425;SDS011;5769;47.998;7.788;2023-04-04T02:20:15;16.98;;;15.32;;
11425;SDS011;5769;47.998;7.788;2023-04-04T02:22:42;20.90;;;17.10;;
11425;SDS011;5769;47.998;7.788;2023-04-04T02:25:15;19.52;;;16.38;;
11425;SDS011;5769;47.998;7.788;2023-04-04T02:27:42;18.52;;;16.58;;
11425;SDS011;5769;47.998;7.788;2023-04-04T02:30:10;19.70;;;16.50;;
11425;SDS011;5769;47.998;7.788;2023-04-04T02:32:37;17.52;;;15.07;;
11425;SDS011;5769;47.998;7.788;2023-04-04T02:35:06;16.10;;;14.20;;
11425;SDS011;5769;47.998;7.788;2023-04-04T02:37:33;16.40;;;14.75;;
11425;SDS011;5769;47.998;7.788;2023-04-04T02:40:00;17.25;;;14.73;;
11425;SDS011;5769;47.998;7.788;2023-04-04T02:42:27;14.82;;;13.48;;
11425;SDS011;5769;47.998;7.788;2023-04-04T02:44:54;16.35;;;14.68;;
11425;SDS011;5769;47.998;7.788;2023-04-04T02:47:22;17.95;;;15.90;;
11425;SDS011;5769;47.998;7.788;2023-04-04T02:49:49;17.90;;;15.85;;
11425;SDS011;5769;47.998;7.788;2023-04-04T02:52:19;16.42;;;14.70;;
11425;SDS011;5769;47.998;7.788;2023-04-04T02:54:46;16.35;;;14.73;;
11425;SDS011;5769;47.998;7.788;2023-04-04T02:57:13;11.52;;;10.90;;
11425;SDS011;5769;47.998;7.788;2023-04-04T02:59:40;11.90;;;11.32;;
11425;SDS011;5769;47.998;7.788;2023-04-04T03:02:07;10.88;;;10.38;;
11425;SDS011;5769;47.998;7.788;2023-04-04T03:04:34;9.88;;;9.48;;
11425;SDS011;5769;47.998;7.788;2023-04-04T03:07:02;9.55;;;9.15;;
11425;SDS011;5769;47.998;7.788;2023-04-04T03:09:30;11.20;;;10.70;;
11425;SDS011;5769;47.998;7.788;2023-04-04T03:11:57;9.82;;;9.43;;
11425;SDS011;5769;47.998;7.788;2023-04-04T03:14:25;10.32;;;9.93;;
11425;SDS011;5769;47.998;7.788;2023-04-04T03:16:53;10.10;;;9.70;;
11425;SDS011;5769;47.998;7.788;2023-04-04T03:19:21;10.35;;;9.95;;
11425;SDS011;5769;47.998;7.788;2023-04-04T03:21:48;7.78;;;7.47;;
11425;SDS011;5769;47.998;7.788;2023-04-04T03:24:15;9.43;;;9.05;;
11425;SDS011;5769;47.998;7.788;2023-04-04T03:26:44;8.30;;;8.00;;
11425;SDS011;5769;47.998;7.788;2023-04-04T03:29:11;8.15;;;7.85;;
11425;SDS011;5769;47.998;7.788;2023-04-04T03:31:38;8.55;;;8.15;;
11425;SDS011;5769;47.998;7.788;2023-04-04T03:34:05;9.15;;;8.75;;
11425;SDS011;5769;47.998;7.788;2023-04-04T03:36:33;8.75;;;8.45;;
11425;SDS011;5769;47.998;7.788;2023-04-04T03:39:00;9.27;;;8.88;;
11425;SDS011;5769;47.998;7.788;2023-04-04T03:41:27;9.48;;;9.10;;
11425;SDS011;5769;47.998;7.788;2023-04-04T03:43:55;9.32;;;8.95;;
11425;SDS011;5769;47.998;7.788;2023-04-04T03:46:22;10.25;;;9.85;;
11425;SDS011;5769;47.998;7.788;2023-04-04T03:48:50;10.07;;;9.68;;
11425;SDS011;5769;47.998;7.788;2023-04-04T03:51:21;10.20;;;9.80;;
11425;SDS011;5769;47.998;7.788;2023-04-04T03:53:48;9.60;;;9.20;;
11425;SDS011;5769;47.998;7.788;2023-04-04T03:56:15;9.57;;;9.18;;
11425;SDS011;5769;47.998;7.788;2023-04-04T03:58:42;10.57;;;10.15;;
11425;SDS011;5769;47.998;7.788;2023-04-04T04:01:11;12.95;;;12.02;;
11425;SDS011;5769;47.998;7.788;2023-04-04T04:03:38;13.82;;;12.68;;
11425;SDS011;5769;47.998;7.788;2023-04-04T04:06:05;14.32;;;13.18;;
11425;SDS011;5769;47.998;7.788;2023-04-04T04:08:32;17.17;;;15.45;;
11425;SDS011;5769;47.998;7.788;2023-04-04T04:11:02;16.05;;;14.45;;
11425;SDS011;5769;47.998;7.788;2023-04-04T04:13:30;16.58;;;15.05;;
11425;SDS011;5769;47.998;7.788;2023-04-04T04:15:57;18.17;;;15.52;;
11425;SDS011;5769;47.998;7.788;2023-04-04T04:18:25;17.23;;;15.43;;
11425;SDS011;5769;47.998;7.788;2023-04-04T04:20:55;17.73;;;15.93;;
11425;SDS011;5769;47.998;7.788;2023-04-04T04:23:23;18.83;;;16.08;;
11425;SDS011;5769;47.998;7.788;2023-04-04T04:25:50;20.02;;;17.80;;
11425;SDS011;5769;47.998;7.788;2023-04-04T04:28:17;22.80;;;19.38;;
11425;SDS011;5769;47.998;7.788;2023-04-04T04:30:44;23.73;;;21.13;;
11425;SDS011;5769;47.998;7.788;2023-04-04T04:33:11;25.83;;;21.33;;
11425;SDS011;5769;47.998;7.788;2023-04-04T04:35:39;24.38;;;21.67;;
11425;SDS011;5769;47.998;7.788;2023-04-04T04:38:06;27.58;;;23.45;;
11425;SDS011;5769;47.998;7.788;2023-04-04T04:40:34;31.17;;;26.30;;
11425;SDS011;5769;47.998;7.788;2023-04-04T04:43:01;31.02;;;25.67;;
11425;SDS011;5769;47.998;7.788;2023-04-04T04:45:29;31.05;;;26.17;;
11425;SDS011;5769;47.998;7.788;2023-04-04T04:47:56;30.80;;;26.23;;
11425;SDS011;5769;47.998;7.788;2023-04-04T04:50:23;26.95;;;22.42;;
11425;SDS011;5769;47.998;7.788;2023-04-04T04:52:52;22.65;;;20.02;;
11425;SDS011;5769;47.998;7.788;2023-04-04T04:55:19;21.58;;;19.25;;
11425;SDS011;5769;47.998;7.788;2023-04-04T04:57:46;22.50;;;19.02;;
11425;SDS011;5769;47.998;7.788;2023-04-04T05:00:13;19.10;;;17.05;;
11425;SDS011;5769;47.998;7.788;2023-04-04T05:02:41;18.60;;;15.77;;
11425;SDS011;5769;47.998;7.788;2023-04-04T05:05:08;18.13;;;16.23;;
11425;SDS011;5769;47.998;7.788;2023-04-04T05:07:35;19.65;;;17.52;;
11425;SDS011;5769;47.998;7.788;2023-04-04T05:10:04;21.38;;;18.65;;
11425;SDS011;5769;47.998;7.788;2023-04-04T05:12:31;18.35;;;16.27;;
11425;SDS011;5769;47.998;7.788;2023-04-04T05:14:58;19.15;;;17.17;;
11425;SDS011;5769;47.998;7.788;2023-04-04T05:17:25;20.90;;;18.55;;
11425;SDS011;5769;47.998;7.788;2023-04-04T05:19:52;23.85;;;19.08;;
11425;SDS011;5769;47.998;7.788;2023-04-04T05:22:19;22.10;;;19.38;;
11425;SDS011;5769;47.998;7.788;2023-04-04T05:24:46;26.45;;;21.98;;
11425;SDS011;5769;47.998;7.788;2023-04-04T05:27:14;28.33;;;24.35;;
11425;SDS011;5769;47.998;7.788;2023-04-04T05:29:41;29.90;;;25.00;;
11425;SDS011;5769;47.998;7.788;2023-04-04T05:32:10;26.13;;;22.15;;
11425;SDS011;5769;47.998;7.788;2023-04-04T05:34:37;23.85;;;20.40;;
11425;SDS011;5769;47.998;7.788;2023-04-04T05:37:04;23.02;;;19.20;;
11425;SDS011;5769;47.998;7.788;2023-04-04T05:39:31;20.60;;;17.95;;
11425;SDS011;5769;47.998;7.788;2023-04-04T05:41:58;20.23;;;17.17;;
11425;SDS011;5769;47.998;7.788;2023-04-04T05:44:26;19.23;;;16.98;;
11425;SDS011;5769;47.998;7.788;2023-04-04T05:46:53;22.50;;;17.88;;
11425;SDS011;5769;47.998;7.788;2023-04-04T05:49:21;8.13;;;7.82;;
11425;SDS011;5769;47.998;7.788;2023-04-04T05:51:48;8.07;;;7.78;;
11425;SDS011;5769;47.998;7.788;2023-04-04T05:54:16;10.43;;;10.00;;
11425;SDS011;5769;47.998;7.788;2023-04-04T05:56:43;10.27;;;9.85;;
11425;SDS011;5769;47.998;7.788;2023-04-04T05:59:11;10.00;;;9.60;;
11425;SDS011;5769;47.998;7.788;2023-04-04T06:01:39;9.82;;;9.43;;
11425;SDS011;5769;47.998;7.788;2023-04-04T06:04:06;8.65;;;8.35;;
11425;SDS011;5769;47.998;7.788;2023-04-04T06:06:33;7.53;;;7.22;;
11425;SDS011;5769;47.998;7.788;2023-04-04T06:09:00;7.72;;;7.43;;
11425;SDS011;5769;47.998;7.788;2023-04-04T06:11:28;7.07;;;6.82;;
11425;SDS011;5769;47.998;7.788;2023-04-04T06:13:55;6.70;;;6.50;;
11425;SDS011;5769;47.998;7.788;2023-04-04T06:16:22;6.22;;;5.93;;
11425;SDS011;5769;47.998;7.788;2023-04-04T06:18:50;5.35;;;5.15;;
11425;SDS011;5769;47.998;7.788;2023-04-04T06:21:17;5.93;;;5.72;;
11425;SDS011;5769;47.998;7.788;2023-04-04T06:23:45;5.15;;;4.95;;
11425;SDS011;5769;47.998;7.788;2023-04-04T06:26:12;5.03;;;4.82;;
11425;SDS011;5769;47.998;7.788;2023-04-04T06:28:45;4.72;;;4.53;;
11425;SDS011;5769;47.998;7.788;2023-04-04T06:31:12;4.82;;;4.63;;
11425;SDS011;5769;47.998;7.788;2023-04-04T06:33:39;5.20;;;5.00;;
11425;SDS011;5769;47.998;7.788;2023-04-04T06:36:08;5.45;;;5.25;;
11425;SDS011;5769;47.998;7.788;2023-04-04T06:38:35;4.97;;;4.78;;
11425;SDS011;5769;47.998;7.788;2023-04-04T06:41:02;6.93;;;6.63;;
11425;SDS011;5769;47.998;7.788;2023-04-04T06:43:29;7.35;;;7.05;;
11425;SDS011;5769;47.998;7.788;2023-04-04T06:45:56;5.38;;;5.18;;
11425;SDS011;5769;47.998;7.788;2023-04-04T06:48:23;5.20;;;5.00;;
11425;SDS011;5769;47.998;7.788;2023-04-04T06:50:50;3.53;;;3.42;;
11425;SDS011;5769;47.998;7.788;2023-04-04T06:53:19;3.53;;;3.42;;
11425;SDS011;5769;47.998;7.788;2023-04-04T06:55:47;3.22;;;3.13;;
11425;SDS011;5769;47.998;7.788;2023-04-04T06:58:15;2.92;;;2.83;;
11425;SDS011;5769;47.998;7.788;2023-04-04T07:00:42;3.08;;;2.97;;
11425;SDS011;5769;47.998;7.788;2023-04-04T07:03:09;2.83;;;2.72;;
11425;SDS011;5769;47.998;7.788;2023-04-04T07:05:36;3.63;;;3.53;;
11425;SDS011;5769;47.998;7.788;2023-04-04T07:08:05;3.50;;;3.40;;
11425;SDS011;5769;47.998;7.788;2023-04-04T07:10:33;3.88;;;3.78;;
11425;SDS011;5769;47.998;7.788;2023-04-04T07:13:00;4.28;;;4.18;;
11425;SDS011;5769;47.998;7.788;2023-04-04T07:15:28;4.70;;;4.50;;
11425;SDS011;5769;47.998;7.788;2023-04-04T07:17:55;3.78;;;3.67;;
11425;SDS011;5769;47.998;7.788;2023-04-04T07:20:22;3.40;;;3.30;;
11425;SDS011;5769;47.998;7.788;2023-04-04T07:22:50;5.10;;;4.90;;
11425;SDS011;5769;47.998;7.788;2023-04-04T07:25:17;5.57;;;5.38;;
11425;SDS011;5769;47.998;7.788;2023-04-04T07:27:46;5.53;;;5.32;;
11425;SDS011;5769;47.998;7.788;2023-04-04T07:30:13;5.30;;;5.10;;
11425;SDS011;5769;47.998;7.788;2023-04-04T07:32:40;6.93;;;6.65;;
11425;SDS011;5769;47.998;7.788;2023-04-04T07:35:08;6.32;;;6.13;;
11425;SDS011;5769;47.998;7.788;2023-04-04T07:37:35;6.35;;;6.15;;
11425;SDS011;5769;47.998;7.788;2023-04-04T07:40:03;6.53;;;6.32;;
11425;SDS011;5769;47.998;7.788;2023-04-04T07:42:30;5.40;;;5.20;;
11425;SDS011;5769;47.998;7.788;2023-04-04T07:44:58;6.95;;;6.65;;
11425;SDS011;5769;47.998;7.788;2023-04-04T07:47:25;7.72;;;7.43;;
11425;SDS011;5769;47.998;7.788;2023-04-04T07:49:52;9.93;;;9.52;;
11425;SDS011;5769;47.998;7.788;2023-04-04T07:52:19;8.65;;;8.35;;
11425;SDS011;5769;47.998;7.788;2023-04-04T07:54:46;7.55;;;7.25;;
11425;SDS011;5769;47.998;7.788;2023-04-04T07:57:14;7.40;;;7.10;;
11425;SDS011;5769;47.998;7.788;2023-04-04T07:59:41;6.47;;;6.28;;
11425;SDS011;5769;47.998;7.788;2023-04-04T08:02:09;6.38;;;6.18;;
11425;SDS011;5769;47.998;7.788;2023-04-04T08:04:36;5.80;;;5.60;;
11425;SDS011;5769;47.998;7.788;2023-04-04T08:07:03;5.90;;;5.70;;
11425;SDS011;5769;47.998;7.788;2023-04-04T08:09:30;6.10;;;5.80;;
11425;SDS011;5769;47.998;7.788;2023-04-04T08:12:00;5.45;;;5.25;;
11425;SDS011;5769;47.998;7.788;2023-04-04T08:14:27;5.68;;;5.47;;
11425;SDS011;5769;47.998;7.788;2023-04-04T08:16:55;6.03;;;5.82;;
11425;SDS011;5769;47.998;7.788;2023-04-04T08:19:23;5.55;;;5.35;;
11425;SDS011;5769;47.998;7.788;2023-04-04T08:21:51;5.28;;;5.07;;
11425;SDS011;5769;47.998;7.788;2023-04-04T08:24:18;5.25;;;5.05;;
11425;SDS011;5769;47.998;7.788;2023-04-04T08:26:46;5.25;;;5.05;;
11425;SDS011;5769;47.998;7.788;2023-04-04T08:29:13;5.78;;;5.57;;
11425;SDS011;5769;47.998;7.788;2023-04-04T08:31:40;6.18;;;5.97;;
11425;SDS011;5769;47.998;7.788;2023-04-04T08:34:07;7.00;;;6.72;;
11425;SDS011;5769;47.998;7.788;2023-04-04T08:36:35;7.18;;;6.88;;
11425;SDS011;5769;47.998;7.788;2023-04-04T08:39:02;6.95;;;6.70;;
11425;SDS011;5769;47.998;7.788;2023-04-04T08:41:30;7.55;;;7.25;;
11425;SDS011;5769;47.998;7.788;2023-04-04T08:43:59;7.30;;;7.00;;
11425;SDS011;5769;47.998;7.788;2023-04-04T08:46:26;8.25;;;7.95;;
11425;SDS011;5769;47.998;7.788;2023-04-04T08:48:53;8.20;;;7.88;;
11425;SDS011;5769;47.998;7.788;2023-04-04T08:51:22;11.73;;;11.15;;
11425;SDS011;5769;47.998;7.788;2023-04-04T08:53:52;13.13;;;12.18;;
11425;SDS011;5769;47.998;7.788;2023-04-04T08:56:20;15.18;;;13.82;;
11425;SDS011;5769;47.998;7.788;2023-04-04T08:58:47;13.07;;;12.15;;
11425;SDS011;5769;47.998;7.788;2023-04-04T09:01:14;14.40;;;13.18;;
11425;SDS011;5769;47.998;7.788;2023-04-04T09:03:41;15.63;;;14.27;;
11425;SDS011;5769;47.998;7.788;2023-04-04T09:06:09;14.20;;;12.88;;
11425;SDS011;5769;47.998;7.788;2023-04-04T09:08:36;17.23;;;14.27;;
11425;SDS011;5769;47.998;7.788;2023-04-04T09:11:05;10.43;;;10.02;;
11425;SDS011;5769;47.998;7.788;2023-04-04T09:13:32;11.60;;;11.02;;
11425;SDS011;5769;47.998;7.788;2023-04-04T09:16:00;16.25;;;14.45;;
11425;SDS011;5769;47.998;7.788;2023-04-04T09:18:28;17.90;;;16.00;;
11425;SDS011;5769;47.998;7.788;2023-04-04T09:20:55;20.08;;;17.90;;
11425;SDS011;5769;47.998;7.788;2023-04-04T09:23:22;20.67;;;18.63;;
11425;SDS011;5769;47.998;7.788;2023-04-04T09:25:49;20.85;;;17.40;;
11425;SDS011;5769;47.998;7.788;2023-04-04T09:28:18;20.75;;;18.63;;
11425;SDS011;5769;47.998;7.788;2023-04-04T09:30:46;28.98;;;23.73;;
11425;SDS011;5769;47.998;7.788;2023-04-04T09:33:14;25.48;;;22.10;;
11425;SDS011;5769;47.998;7.788;2023-04-04T09:35:43;27.15;;;23.20;;
11425;SDS011;5769;47.998;7.788;2023-04-04T09:38:10;29.17;;;23.92;;
11425;SDS011;5769;47.998;7.788;2023-04-04T09:40:39;28.48;;;25.05;;
11425;SDS011;5769;47.998;7.788;2023-04-04T09:43:07;30.38;;;25.75;;
11425;SDS011;5769;47.998;7.788;2023-04-04T09:45:38;32.47;;;27.63;;
11425;SDS011;5769;47.998;7.788;2023-04-04T09:48:06;29.25;;;24.88;;
11425;SDS011;5769;47.998;7.788;2023-04-04T09:50:33;30.50;;;24.75;;
11425;SDS011;5769;47.998;7.788;2023-04-04T09:53:01;33.95;;;28.33;;
11425;SDS011;5769;47.998;7.788;2023-04-04T09:55:31;32.92;;;27.60;;
11425;SDS011;5769;47.998;7.788;2023-04-04T09:57:59;33.47;;;28.52;;
11425;SDS011;5769;47.998;7.788;2023-04-04T10:00:29;35.08;;;29.75;;
11425;SDS011;5769;47.998;7.788;2023-04-04T10:03:03;29.27;;;25.92;;
11425;SDS011;5769;47.998;7.788;2023-04-04T10:05:31;32.15;;;26.77;;
11425;SDS011;5769;47.998;7.788;2023-04-04T10:07:58;29.55;;;25.63;;
11425;SDS011;5769;47.998;7.788;2023-04-04T10:10:26;24.65;;;22.00;;
11425;SDS011;5769;47.998;7.788;2023-04-04T10:12:55;27.58;;;24.45;;
11425;SDS011;5769;47.998;7.788;2023-04-04T10:15:23;35.17;;;30.75;;
11425;SDS011;5769;47.998;7.788;2023-04-04T10:18:03;34.35;;;30.67;;
11425;SDS011;5769;47.998;7.788;2023-04-04T10:20:32;41.78;;;32.33;;
11425;SDS011;5769;47.998;7.788;2023-04-04T10:22:59;52.63;;;38.92;;
11425;SDS011;5769;47.998;7.788;2023-04-04T10:25:26;51.78;;;38.90;;
11425;SDS011;5769;47.998;7.788;2023-04-04T10:27:54;54.38;;;40.28;;
11425;SDS011;5769;47.998;7.788;2023-04-04T10:30:21;36.72;;;29.55;;
11425;SDS011;5769;47.998;7.788;2023-04-04T10:32:49;28.10;;;23.40;;
11425;SDS011;5769;47.998;7.788;2023-04-04T10:35:20;21.40;;;18.73;;
11425;SDS011;5769;47.998;7.788;2023-04-04T10:37:49;26.92;;;23.05;;
11425;SDS011;5769;47.998;7.788;2023-04-04T10:40:18;25.23;;;22.40;;
11425;SDS011;5769;47.998;7.788;2023-04-04T10:42:47;19.30;;;17.55;;
11425;SDS011;5769;47.998;7.788;2023-04-04T10:45:15;26.52;;;23.58;;
11425;SDS011;5769;47.998;7.788;2023-04-04T10:47:43;24.92;;;22.58;;
11425;SDS011;5769;47.998;7.788;2023-04-04T10:50:10;28.90;;;25.75;;
11425;SDS011;5769;47.998;7.788;2023-04-04T10:52:39;23.58;;;20.17;;
11425;SDS011;5769;47.998;7.788;2023-04-04T10:55:08;14.57;;;13.38;;
11425;SDS011;5769;47.998;7.788;2023-04-04T10:57:36;16.15;;;14.52;;
11425;SDS011;5769;47.998;7.788;2023-04-04T11:00:05;19.10;;;16.67;;
11425;SDS011;5769;47.998;7.788;2023-04-04T11:02:42;19.55;;;17.60;;
11425;SDS011;5769;47.998;7.788;2023-04-04T11:05:09;21.85;;;19.52;;
11425;SDS011;5769;47.998;7.788;2023-04-04T11:07:36;24.00;;;19.77;;
11425;SDS011;5769;47.998;7.788;2023-04-04T11:10:13;22.75;;;19.88;;
11425;SDS011;5769;47.998;7.788;2023-04-04T11:12:42;23.25;;;20.83;;
11425;SDS011;5769;47.998;7.788;2023-04-04T11:15:11;28.77;;;25.58;;
11425;SDS011;5769;47.998;7.788;2023-04-04T11:17:42;25.80;;;21.48;;
11425;SDS011;5769;47.998;7.788;2023-04-04T11:20:09;21.15;;;18.90;;
11425;SDS011;5769;47.998;7.788;2023-04-04T11:22:36;22.20;;;19.83;;
11425;SDS011;5769;47.998;7.788;2023-04-04T11:27:50;13.85;;;12.80;;
11425;SDS011;5769;47.998;7.788;2023-04-04T11:30:20;17.88;;;16.25;;
11425;SDS011;5769;47.998;7.788;2023-04-04T11:32:48;18.23;;;16.52;;
11425;SDS011;5769;47.998;7.788;2023-04-04T11:35:15;7.30;;;7.00;;
11425;SDS011;5769;47.998;7.788;2023-04-04T11:37:42;7.32;;;7.03;;
11425;SDS011;5769;47.998;7.788;2023-04-04T11:40:10;8.32;;;8.02;;
11425;SDS011;5769;47.998;7.788;2023-04-04T11:42:37;7.07;;;6.78;;
11425;SDS011;5769;47.998;7.788;2023-04-04T11:45:06;9.13;;;8.75;;
11425;SDS011;5769;47.998;7.788;2023-04-04T11:47:34;6.55;;;6.35;;
11425;SDS011;5769;47.998;7.788;2023-04-04T11:50:06;3.45;;;3.35;;
11425;SDS011;5769;47.998;7.788;2023-04-04T11:52:33;1.35;;;1.35;;
11425;SDS011;5769;47.998;7.788;2023-04-04T11:55:01;1.17;;;1.17;;
11425;SDS011;5769;47.998;7.788;2023-04-04T11:57:28;2.17;;;2.08;;
11425;SDS011;5769;47.998;7.788;2023-04-04T11:59:55;3.15;;;3.05;;
11425;SDS011;5769;47.998;7.788;2023-04-04T12:02:24;2.80;;;2.70;;
11425;SDS011;5769;47.998;7.788;2023-04-04T12:04:55;3.03;;;2.92;;
11425;SDS011;5769;47.998;7.788;2023-04-04T12:07:23;3.08;;;2.97;;
11425;SDS011;5769;47.998;7.788;2023-04-04T12:09:50;2.60;;;2.50;;
11425;SDS011;5769;47.998;7.788;2023-04-04T12:12:17;3.20;;;3.10;;
11425;SDS011;5769;47.998;7.788;2023-04-04T12:14:45;2.20;;;2.10;;
11425;SDS011;5769;47.998;7.788;2023-04-04T12:17:13;2.78;;;2.67;;
11425;SDS011;5769;47.998;7.788;2023-04-04T12:19:43;1.98;;;1.88;;
11425;SDS011;5769;47.998;7.788;2023-04-04T12:22:10;1.75;;;1.75;;
11425;SDS011;5769;47.998;7.788;2023-04-04T12:24:37;2.47;;;2.38;;
11425;SDS011;5769;47.998;7.788;2023-04-04T12:27:05;2.33;;;2.22;;
11425;SDS011;5769;47.998;7.788;2023-04-04T12:29:32;2.58;;;2.47;;
11425;SDS011;5769;47.998;7.788;2023-04-04T12:32:00;2.15;;;2.05;;
11425;SDS011;5769;47.998;7.788;2023-04-04T12:34:28;2.00;;;1.90;;
11425;SDS011;5769;47.998;7.788;2023-04-04T12:36:57;2.17;;;2.10;;
11425;SDS011;5769;47.998;7.788;2023-04-04T12:39:25;1.98;;;1.88;;
11425;SDS011;5769;47.998;7.788;2023-04-04T12:41:52;2.30;;;2.20;;
11425;SDS011;5769;47.998;7.788;2023-04-04T12:44:25;2.47;;;2.38;;
11425;SDS011;5769;47.998;7.788;2023-04-04T12:46:54;1.92;;;1.92;;
11425;SDS011;5769;47.998;7.788;2023-04-04T12:49:22;1.85;;;1.77;;
11425;SDS011;5769;47.998;7.788;2023-04-04T12:51:51;1.73;;;1.73;;
11425;SDS011;5769;47.998;7.788;2023-04-04T12:54:27;2.42;;;2.33;;
11425;SDS011;5769;47.998;7.788;2023-04-04T12:56:54;2.17;;;2.08;;
11425;SDS011;5769;47.998;7.788;2023-04-04T12:59:22;2.25;;;2.15;;
11425;SDS011;5769;47.998;7.788;2023-04-04T13:01:49;2.50;;;2.40;;
11425;SDS011;5769;47.998;7.788;2023-04-04T13:04:16;2.22;;;2.13;;
11425;SDS011;5769;47.998;7.788;2023-04-04T13:06:43;2.55;;;2.45;;
11425;SDS011;5769;47.998;7.788;2023-04-04T13:09:15;2.70;;;2.60;;
11425;SDS011;5769;47.998;7.788;2023-04-04T13:11:56;2.80;;;2.70;;
11425;SDS011;5769;47.998;7.788;2023-04-04T13:14:24;3.05;;;2.95;;
11425;SDS011;5769;47.998;7.788;2023-04-04T13:17:01;4.30;;;4.20;;
11425;SDS011;5769;47.998;7.788;2023-04-04T13:19:29;3.90;;;3.80;;
11425;SDS011;5769;47.998;7.788;2023-04-04T13:21:56;4.75;;;4.55;;
11425;SDS011;5769;47.998;7.788;2023-04-04T13:24:23;1.90;;;1.80;;
11425;SDS011;5769;47.998;7.788;2023-04-04T13:26:50;1.85;;;1.77;;
11425;SDS011;5769;47.998;7.788;2023-04-04T13:29:18;4.13;;;4.00;;
11425;SDS011;5769;47.998;7.788;2023-04-04T13:31:47;4.53;;;4.38;;
11425;SDS011;5769;47.998;7.788;2023-04-04T13:34:14;3.60;;;3.50;;
11425;SDS011;5769;47.998;7.788;2023-04-04T13:36:41;2.78;;;2.67;;
11425;SDS011;5769;47.998;7.788;2023-04-04T13:39:10;4.43;;;4.22;;
11425;SDS011;5769;47.998;7.788;2023-04-04T13:41:37;3.80;;;3.70;;
11425;SDS011;5769;47.998;7.788;2023-04-04T13:44:04;3.70;;;3.60;;
11425;SDS011;5769;47.998;7.788;2023-04-04T13:46:36;2.42;;;2.33;;
11425;SDS011;5769;47.998;7.788;2023-04-04T13:49:03;3.45;;;3.35;;
11425;SDS011;5769;47.998;7.788;2023-04-04T13:51:30;4.38;;;4.28;;
11425;SDS011;5769;47.998;7.788;2023-04-04T13:53:57;4.22;;;4.13;;
11425;SDS011;5769;47.998;7.788;2023-04-04T13:56:24;5.93;;;5.72;;
11425;SDS011;5769;47.998;7.788;2023-04-04T13:58:51;6.30;;;6.07;;
11425;SDS011;5769;47.998;7.788;2023-04-04T14:01:20;9.35;;;8.93;;
11425;SDS011;5769;47.998;7.788;2023-04-04T14:03:48;9.13;;;8.73;;
11425;SDS011;5769;47.998;7.788;2023-04-04T14:06:15;7.70;;;7.40;;
11425;SDS011;5769;47.998;7.788;2023-04-04T14:08:42;3.92;;;3.83;;
11425;SDS011;5769;47.998;7.788;2023-04-04T14:11:10;2.42;;;2.33;;
11425;SDS011;5769;47.998;7.788;2023-04-04T14:13:38;2.00;;;1.90;;
11425;SDS011;5769;47.998;7.788;2023-04-04T14:16:06;1.73;;;1.73;;
11425;SDS011;5769;47.998;7.788;2023-04-04T14:18:33;2.17;;;2.08;;
11425;SDS011;5769;47.998;7.788;2023-04-04T14:21:01;1.00;;;1.00;;
11425;SDS011;5769;47.998;7.788;2023-04-04T14:23:28;1.65;;;1.65;;
11425;SDS011;5769;47.998;7.788;2023-04-04T14:25:55;1.45;;;1.42;;
11425;SDS011;5769;47.998;7.788;2023-04-04T14:28:22;2.05;;;1.95;;
11425;SDS011;5769;47.998;7.788;2023-04-04T14:30:50;2.30;;;2.20;;
11425;SDS011;5769;47.998;7.788;2023-04-04T14:33:17;2.22;;;2.13;;
11425;SDS011;5769;47.998;7.788;2023-04-04T14:35:44;2.38;;;2.28;;
11425;SDS011;5769;47.998;7.788;2023-04-04T14:38:12;3.38;;;3.28;;
11425;SDS011;5769;47.998;7.788;2023-04-04T14:40:39;3.15;;;3.05;;
11425;SDS011;5769;47.998;7.788;2023-04-04T14:43:06;3.35;;;3.25;;
11425;SDS011;5769;47.998;7.788;2023-04-04T14:45:34;4.13;;;3.92;;
11425;SDS011;5769;47.998;7.788;2023-04-04T14:48:01;3.17;;;3.08;;
11425;SDS011;5769;47.998;7.788;2023-04-04T14:50:28;3.17;;;3.08;;
11425;SDS011;5769;47.998;7.788;2023-04-04T14:52:55;3.22;;;3.13;;
11425;SDS011;5769;47.998;7.788;2023-04-04T14:55:23;2.65;;;2.55;;